Time;durP1;ratioP1;P1;durP2;ratioP2;P2;SDS_P1;SDS_P2;PMS_P1;PMS_P2;Temp;Humidity;BMP_temperature;BMP_pressure;BME280_temperature;BME280_humidity;BME280_pressure;Samples;Min_cycle;Max_cycle;Signal;HPM_P1;HPM_P2
2022/11/03 00:00:38;;;;;;;13.75;3.17;;;;;;;;;;5029874;28;20477;-78
2022/11/03 00:03:04;;;;;;;13.30;3.22;;;;;;;;;;5029987;28;20049;-78
2022/11/03 00:08:15;;;;;;;15.70;2.72;;;;;;;;;;5025212;28;20045;-78
2022/11/03 00:10:41;;;;;;;13.98;2.78;;;;;;;;;;5010193;28;20042;-77
2022/11/03 00:13:07;;;;;;;13.15;2.55;;;;;;;;;;5013857;28;20053;-78
2022/11/03 00:15:33;;;;;;;12.32;2.28;;;;;;;;;;5029533;28;20075;-76
2022/11/03 00:17:59;;;;;;;14.35;2.65;;;;;;;;;;5030616;28;20044;-78
2022/11/03 00:20:25;;;;;;;13.45;2.60;;;;;;;;;;5029218;28;20057;-77
2022/11/03 00:22:51;;;;;;;12.63;2.60;;;;;;;;;;5029642;28;20041;-77
2022/11/03 00:25:17;;;;;;;11.85;2.55;;;;;;;;;;5026918;28;20050;-77
2022/11/03 00:27:43;;;;;;;15.40;2.88;;;;;;;;;;5027689;28;20038;-77
2022/11/03 00:30:09;;;;;;;15.75;2.80;;;;;;;;;;5026782;28;20034;-77
2022/11/03 00:32:35;;;;;;;15.60;3.10;;;;;;;;;;5076058;28;20057;-77
2022/11/03 00:35:01;;;;;;;18.10;3.17;;;;;;;;;;5112114;28;20043;-77
2022/11/03 00:37:27;;;;;;;17.13;2.85;;;;;;;;;;5111727;28;20043;-78
2022/11/03 00:39:53;;;;;;;15.35;2.92;;;;;;;;;;5112962;28;20112;-76
2022/11/03 00:42:19;;;;;;;15.88;2.85;;;;;;;;;;5109648;28;20044;-77
2022/11/03 00:44:45;;;;;;;12.60;2.88;;;;;;;;;;5111626;28;20122;-77
2022/11/03 00:47:11;;;;;;;15.85;2.70;;;;;;;;;;5110827;28;20127;-78
2022/11/03 00:49:37;;;;;;;14.63;3.13;;;;;;;;;;5111250;28;20127;-78
2022/11/03 00:52:03;;;;;;;17.17;3.45;;;;;;;;;;5104906;28;20394;-77
2022/11/03 00:54:29;;;;;;;15.43;2.60;;;;;;;;;;5112164;28;20043;-77
2022/11/03 00:56:55;;;;;;;13.65;2.80;;;;;;;;;;5111423;28;20421;-77
2022/11/03 00:59:21;;;;;;;14.68;3.00;;;;;;;;;;5107594;28;20069;-77
2022/11/03 01:01:47;;;;;;;13.77;2.70;;;;;;;;;;5111673;28;20121;-77
2022/11/03 01:06:59;;;;;;;17.65;3.05;;;;;;;;;;5108821;28;20439;-77
2022/11/03 01:09:34;;;;;;;13.73;2.88;;;;;;;;;;5087496;28;20503;-77
2022/11/03 01:12:02;;;;;;;17.55;2.83;;;;;;;;;;5102336;28;20051;-77
2022/11/03 01:14:30;;;;;;;16.38;3.03;;;;;;;;;;5103657;28;20042;-77
2022/11/03 01:16:56;;;;;;;17.58;3.47;;;;;;;;;;5103183;28;20063;-77
2022/11/03 01:19:24;;;;;;;15.32;3.15;;;;;;;;;;5084067;28;20071;-77
2022/11/03 01:21:50;;;;;;;14.93;2.50;;;;;;;;;;5104795;28;20155;-77
2022/11/03 01:24:16;;;;;;;16.90;3.67;;;;;;;;;;5103577;28;20048;-77
2022/11/03 01:26:42;;;;;;;16.17;3.00;;;;;;;;;;5105020;28;20081;-77
2022/11/03 01:29:08;;;;;;;13.63;2.38;;;;;;;;;;5109257;28;20036;-77
2022/11/03 01:31:34;;;;;;;13.07;2.70;;;;;;;;;;5109404;28;20056;-77
2022/11/03 01:34:00;;;;;;;16.13;3.53;;;;;;;;;;5104188;28;20050;-77
2022/11/03 01:36:26;;;;;;;13.98;3.30;;;;;;;;;;5105133;28;20051;-77
2022/11/03 01:38:54;;;;;;;21.50;2.90;;;;;;;;;;5114918;28;20043;-77
2022/11/03 01:41:21;;;;;;;15.43;3.13;;;;;;;;;;5112248;28;20055;-77
2022/11/03 01:43:50;;;;;;;15.90;3.03;;;;;;;;;;5094598;28;20134;-77
2022/11/03 01:46:27;;;;;;;12.23;2.47;;;;;;;;;;5114430;28;20520;-78
2022/11/03 01:49:05;;;;;;;14.30;2.97;;;;;;;;;;5113909;28;20040;-77
2022/11/03 01:51:34;;;;;;;14.98;2.67;;;;;;;;;;5112559;28;20035;-77
2022/11/03 01:54:02;;;;;;;19.20;3.42;;;;;;;;;;5115330;28;20047;-78
2022/11/03 01:56:29;;;;;;;13.55;2.80;;;;;;;;;;5114277;28;20043;-78
2022/11/03 01:58:56;;;;;;;18.63;3.40;;;;;;;;;;5112240;28;20073;-78
2022/11/03 02:01:22;;;;;;;14.18;3.08;;;;;;;;;;5114579;28;20051;-78
2022/11/03 02:03:51;;;;;;;18.80;3.50;;;;;;;;;;5112635;28;20047;-78
2022/11/03 02:06:19;;;;;;;20.55;3.97;;;;;;;;;;5113217;28;20043;-76
2022/11/03 02:08:51;;;;;;;15.13;2.78;;;;;;;;;;5112698;28;20042;-76
2022/11/03 02:14:02;;;;;;;17.88;3.20;;;;;;;;;;5113892;28;20039;-77
2022/11/03 02:16:29;;;;;;;16.27;2.80;;;;;;;;;;5115593;28;20096;-77
2022/11/03 02:18:57;;;;;;;16.48;3.03;;;;;;;;;;5114746;28;20039;-77
2022/11/03 02:21:43;;;;;;;14.20;2.80;;;;;;;;;;5114574;28;20036;-77
2022/11/03 02:24:15;;;;;;;15.40;2.97;;;;;;;;;;5108737;28;20095;-77
2022/11/03 02:26:43;;;;;;;17.33;3.28;;;;;;;;;;5112175;28;20524;-77
2022/11/03 02:29:09;;;;;;;13.10;3.38;;;;;;;;;;5113838;28;20397;-77
2022/11/03 02:31:41;;;;;;;16.10;3.03;;;;;;;;;;5115081;28;20556;-77
2022/11/03 02:34:12;;;;;;;19.10;3.10;;;;;;;;;;5113803;28;20481;-77
2022/11/03 02:36:42;;;;;;;14.27;3.15;;;;;;;;;;5112677;28;20054;-77
2022/11/03 02:39:11;;;;;;;18.85;3.45;;;;;;;;;;5107353;28;20062;-77
2022/11/03 02:41:38;;;;;;;22.40;3.22;;;;;;;;;;5113301;28;20116;-77
2022/11/03 02:44:06;;;;;;;14.07;2.83;;;;;;;;;;5113732;28;20081;-77
2022/11/03 02:46:34;;;;;;;12.88;2.75;;;;;;;;;;5112718;28;20122;-77
2022/11/03 02:49:00;;;;;;;17.17;3.55;;;;;;;;;;5113970;28;20050;-78
2022/11/03 02:51:26;;;;;;;20.33;3.40;;;;;;;;;;5114022;28;20489;-78
2022/11/03 02:54:04;;;;;;;15.70;2.88;;;;;;;;;;5113328;28;20394;-77
2022/11/03 02:56:30;;;;;;;13.85;2.92;;;;;;;;;;5112103;28;20131;-78
2022/11/03 02:59:06;;;;;;;15.90;3.03;;;;;;;;;;5111948;28;20085;-78
2022/11/03 03:01:45;;;;;;;19.05;3.47;;;;;;;;;;5112909;28;20040;-77
2022/11/03 03:04:12;;;;;;;13.68;3.00;;;;;;;;;;5094513;28;20043;-77
2022/11/03 03:06:55;;;;;;;16.38;3.22;;;;;;;;;;5111465;28;20454;-77
2022/11/03 03:09:23;;;;;;;14.88;2.83;;;;;;;;;;5110232;28;20054;-78
2022/11/03 03:11:51;;;;;;;17.20;3.22;;;;;;;;;;5113678;28;20036;-78
2022/11/03 03:14:19;;;;;;;18.35;3.55;;;;;;;;;;5112083;28;20493;-77
2022/11/03 03:16:51;;;;;;;15.20;3.10;;;;;;;;;;5111384;28;20067;-78
2022/11/03 03:19:22;;;;;;;18.33;3.58;;;;;;;;;;5113759;28;20447;-77
2022/11/03 03:21:50;;;;;;;17.92;3.28;;;;;;;;;;5114180;28;20086;-78
2022/11/03 03:24:38;;;;;;;19.15;3.67;;;;;;;;;;5110453;28;20485;-78
2022/11/03 03:27:06;;;;;;;20.23;3.63;;;;;;;;;;5114755;28;20069;-78
2022/11/03 03:29:45;;;;;;;18.10;3.10;;;;;;;;;;5112734;28;20458;-77
2022/11/03 03:32:14;;;;;;;15.45;3.15;;;;;;;;;;5111663;28;20075;-78
2022/11/03 03:34:42;;;;;;;10.75;2.80;;;;;;;;;;5111186;28;20039;-78
2022/11/03 03:37:08;;;;;;;21.17;3.95;;;;;;;;;;5111098;28;20040;-78
2022/11/03 03:39:36;;;;;;;13.90;2.80;;;;;;;;;;5111884;28;20082;-78
2022/11/03 03:42:03;;;;;;;16.83;3.00;;;;;;;;;;5112369;28;20034;-78
2022/11/03 03:44:29;;;;;;;15.82;2.97;;;;;;;;;;5110614;28;20035;-78
2022/11/03 03:46:58;;;;;;;14.48;2.88;;;;;;;;;;5111335;28;20460;-77
2022/11/03 03:49:24;;;;;;;18.52;3.30;;;;;;;;;;5094948;28;20105;-77
2022/11/03 03:51:51;;;;;;;18.83;3.50;;;;;;;;;;5111557;28;20070;-76
2022/11/03 03:54:17;;;;;;;16.15;3.35;;;;;;;;;;5093866;28;20044;-77
2022/11/03 03:56:55;;;;;;;17.25;2.97;;;;;;;;;;5113716;28;20054;-77
2022/11/03 03:59:21;;;;;;;14.50;3.15;;;;;;;;;;5110776;28;20135;-77
2022/11/03 04:01:47;;;;;;;14.65;3.30;;;;;;;;;;5112309;28;20040;-77
2022/11/03 04:04:13;;;;;;;12.57;2.92;;;;;;;;;;5109064;28;20043;-77
2022/11/03 04:06:39;;;;;;;14.95;3.55;;;;;;;;;;5111569;28;20043;-76
2022/11/03 04:09:05;;;;;;;12.88;3.50;;;;;;;;;;5110594;28;20046;-77
2022/11/03 04:22:32;;;;;;;14.02;3.15;;;;;;;;;;5113702;28;20052;-77
2022/11/03 04:24:58;;;;;;;17.60;3.72;;;;;;;;;;5109142;28;20413;-77
2022/11/03 04:27:34;;;;;;;15.15;2.85;;;;;;;;;;5112917;28;20515;-77
2022/11/03 04:30:06;;;;;;;13.10;3.05;;;;;;;;;;5111213;28;20032;-77
2022/11/03 04:32:32;;;;;;;16.17;3.20;;;;;;;;;;5110187;28;20044;-77
2022/11/03 04:34:59;;;;;;;16.63;3.20;;;;;;;;;;5108052;28;20048;-77
2022/11/03 04:37:27;;;;;;;13.32;3.30;;;;;;;;;;5112008;28;20167;-77
2022/11/03 04:39:55;;;;;;;16.77;3.10;;;;;;;;;;5112128;28;20126;-77
2022/11/03 04:42:21;;;;;;;13.10;2.88;;;;;;;;;;5112963;28;20149;-77
2022/11/03 04:44:48;;;;;;;14.88;2.80;;;;;;;;;;5110467;28;20046;-76
2022/11/03 04:47:15;;;;;;;17.75;3.17;;;;;;;;;;5110173;28;20130;-77
2022/11/03 04:49:42;;;;;;;18.02;3.25;;;;;;;;;;5108747;28;20405;-77
2022/11/03 04:52:15;;;;;;;16.83;2.80;;;;;;;;;;5112676;28;20545;-77
2022/11/03 04:54:42;;;;;;;13.45;2.83;;;;;;;;;;5107536;28;20459;-77
2022/11/03 04:57:11;;;;;;;14.63;3.05;;;;;;;;;;5097434;28;20477;-77
2022/11/03 04:59:37;;;;;;;14.63;3.20;;;;;;;;;;5111362;28;20061;-77
2022/11/03 05:02:03;;;;;;;12.95;3.10;;;;;;;;;;5108839;28;20115;-77
2022/11/03 05:04:29;;;;;;;13.68;2.97;;;;;;;;;;5107065;28;21602;-77
2022/11/03 05:06:55;;;;;;;15.85;2.92;;;;;;;;;;5107126;28;20102;-77
2022/11/03 05:09:26;;;;;;;13.30;2.80;;;;;;;;;;5108700;28;20042;-77
2022/11/03 05:11:53;;;;;;;15.32;2.60;;;;;;;;;;5114603;28;20056;-77
2022/11/03 05:14:37;;;;;;;14.00;3.33;;;;;;;;;;5113990;28;20089;-77
2022/11/03 05:17:07;;;;;;;13.10;2.58;;;;;;;;;;5109562;28;20062;-77
2022/11/03 05:19:34;;;;;;;15.18;3.13;;;;;;;;;;5096684;28;20046;-77
2022/11/03 05:22:01;;;;;;;14.30;3.30;;;;;;;;;;5114263;28;20123;-77
2022/11/03 05:24:29;;;;;;;15.70;3.10;;;;;;;;;;5113859;28;20036;-76
2022/11/03 05:26:56;;;;;;;11.50;3.28;;;;;;;;;;5115802;28;20123;-77
2022/11/03 05:29:23;;;;;;;14.95;3.17;;;;;;;;;;5115970;28;20040;-77
2022/11/03 05:31:51;;;;;;;14.82;2.92;;;;;;;;;;5112407;28;20666;-77
2022/11/03 05:34:17;;;;;;;16.90;3.28;;;;;;;;;;5113731;28;20066;-77
2022/11/03 05:36:43;;;;;;;20.92;3.53;;;;;;;;;;5116000;28;20504;-78
2022/11/03 05:39:27;;;;;;;16.48;3.47;;;;;;;;;;5115680;28;20039;-77
2022/11/03 05:41:54;;;;;;;13.10;3.08;;;;;;;;;;5109473;28;20059;-77
2022/11/03 05:44:37;;;;;;;18.85;3.10;;;;;;;;;;5103998;28;20032;-78
2022/11/03 05:47:13;;;;;;;14.25;3.00;;;;;;;;;;5109353;28;20143;-79
2022/11/03 05:49:39;;;;;;;18.38;3.17;;;;;;;;;;5097165;28;20036;-77
2022/11/03 05:52:13;;;;;;;14.50;3.10;;;;;;;;;;5109842;28;20079;-77
2022/11/03 05:54:39;;;;;;;15.85;3.03;;;;;;;;;;5106685;28;20193;-77
2022/11/03 05:57:13;;;;;;;13.45;2.95;;;;;;;;;;5113208;28;20433;-77
2022/11/03 05:59:39;;;;;;;13.13;3.00;;;;;;;;;;5094737;28;20196;-77
2022/11/03 06:02:14;;;;;;;17.38;3.15;;;;;;;;;;5095760;28;20111;-77
2022/11/03 06:04:40;;;;;;;14.32;3.45;;;;;;;;;;5109583;28;20066;-77
2022/11/03 06:07:14;;;;;;;16.77;3.05;;;;;;;;;;5115953;28;20489;-77
2022/11/03 06:09:40;;;;;;;15.48;3.20;;;;;;;;;;5114495;28;20168;-77
2022/11/03 06:12:11;;;;;;;19.02;2.90;;;;;;;;;;5112669;28;20482;-77
2022/11/03 06:14:37;;;;;;;17.25;3.08;;;;;;;;;;5111840;28;20417;-77
2022/11/03 06:17:04;;;;;;;14.60;3.33;;;;;;;;;;5114508;28;20043;-77
2022/11/03 06:19:36;;;;;;;12.63;3.20;;;;;;;;;;5112727;28;20043;-77
2022/11/03 06:22:10;;;;;;;19.17;3.55;;;;;;;;;;5114040;28;20032;-77
2022/11/03 06:24:36;;;;;;;12.95;3.22;;;;;;;;;;5110668;28;20501;-77
2022/11/03 06:27:02;;;;;;;15.07;3.40;;;;;;;;;;5115244;28;20063;-77
2022/11/03 06:29:30;;;;;;;17.55;3.60;;;;;;;;;;5113079;28;20057;-77
2022/11/03 06:31:56;;;;;;;13.77;3.13;;;;;;;;;;5113711;28;20044;-77
2022/11/03 06:34:25;;;;;;;15.45;2.97;;;;;;;;;;5111700;28;20453;-77
2022/11/03 06:36:51;;;;;;;13.15;3.20;;;;;;;;;;5113839;28;20039;-77
2022/11/03 06:39:20;;;;;;;18.02;3.30;;;;;;;;;;5109758;28;20108;-77
2022/11/03 06:41:46;;;;;;;20.45;4.03;;;;;;;;;;5107218;28;20043;-76
2022/11/03 06:44:19;;;;;;;13.20;3.08;;;;;;;;;;5087860;28;20046;-77
2022/11/03 06:46:45;;;;;;;13.32;3.33;;;;;;;;;;5103858;28;20047;-77
2022/11/03 06:49:31;;;;;;;14.77;2.97;;;;;;;;;;5110152;28;20077;-77
2022/11/03 06:51:58;;;;;;;14.90;3.10;;;;;;;;;;5106057;28;20466;-77
2022/11/03 06:54:24;;;;;;;20.67;3.50;;;;;;;;;;5076388;28;20486;-78
2022/11/03 06:56:50;;;;;;;12.05;2.80;;;;;;;;;;5098748;28;20512;-77
2022/11/03 06:59:18;;;;;;;16.60;3.53;;;;;;;;;;5114468;28;20055;-78
2022/11/03 07:01:45;;;;;;;11.77;3.35;;;;;;;;;;5113059;28;20085;-78
2022/11/03 07:04:17;;;;;;;14.00;3.25;;;;;;;;;;5111095;28;20043;-78
2022/11/03 07:06:43;;;;;;;12.25;3.35;;;;;;;;;;5114470;28;20050;-77
2022/11/03 07:09:20;;;;;;;17.15;3.50;;;;;;;;;;5104485;28;20055;-78
2022/11/03 07:11:49;;;;;;;16.40;3.42;;;;;;;;;;5112474;28;20401;-78
2022/11/03 07:14:17;;;;;;;12.75;3.10;;;;;;;;;;5113514;28;20040;-78
2022/11/03 07:16:44;;;;;;;15.18;3.25;;;;;;;;;;5111995;28;20043;-78
2022/11/03 07:19:17;;;;;;;14.32;3.33;;;;;;;;;;5110053;28;20405;-78
2022/11/03 07:21:45;;;;;;;18.98;3.47;;;;;;;;;;5109794;28;20043;-78
2022/11/03 07:24:29;;;;;;;20.55;3.00;;;;;;;;;;5112280;28;20035;-77
2022/11/03 07:27:05;;;;;;;14.73;3.72;;;;;;;;;;5097916;28;20067;-78
2022/11/03 07:29:31;;;;;;;13.50;3.00;;;;;;;;;;5110741;28;20060;-77
2022/11/03 07:31:59;;;;;;;16.95;3.20;;;;;;;;;;5094988;28;20390;-78
2022/11/03 07:34:27;;;;;;;16.38;3.13;;;;;;;;;;5110599;28;20043;-77
2022/11/03 07:36:53;;;;;;;15.75;3.53;;;;;;;;;;5113542;28;20031;-77
2022/11/03 07:39:20;;;;;;;13.32;3.25;;;;;;;;;;5110980;28;20490;-78
2022/11/03 07:41:47;;;;;;;10.98;2.95;;;;;;;;;;5108796;28;20045;-78
2022/11/03 07:44:15;;;;;;;19.02;3.53;;;;;;;;;;5105209;28;20080;-78
2022/11/03 07:46:42;;;;;;;14.00;2.95;;;;;;;;;;5092769;28;20126;-78
2022/11/03 07:49:19;;;;;;;17.83;3.78;;;;;;;;;;5108527;28;20055;-78
2022/11/03 07:51:45;;;;;;;12.88;2.88;;;;;;;;;;5112749;28;20081;-78
2022/11/03 07:54:22;;;;;;;16.23;3.80;;;;;;;;;;5111741;28;20055;-77
2022/11/03 07:56:57;;;;;;;16.27;3.55;;;;;;;;;;5109243;28;20458;-78
2022/11/03 07:59:27;;;;;;;17.75;3.70;;;;;;;;;;5112184;28;20116;-78
2022/11/03 08:01:55;;;;;;;18.58;3.55;;;;;;;;;;5112828;28;20512;-78
2022/11/03 08:04:22;;;;;;;16.13;3.33;;;;;;;;;;5112423;28;20493;-77
2022/11/03 08:06:48;;;;;;;15.15;3.13;;;;;;;;;;5113221;28;20046;-78
2022/11/03 08:09:15;;;;;;;17.52;3.22;;;;;;;;;;5112659;28;20136;-77
2022/11/03 08:11:41;;;;;;;18.17;3.72;;;;;;;;;;5093966;28;20084;-77
2022/11/03 08:14:08;;;;;;;16.65;3.25;;;;;;;;;;5111523;28;20089;-77
2022/11/03 08:16:34;;;;;;;15.30;3.47;;;;;;;;;;5111561;28;20058;-77
2022/11/03 08:19:00;;;;;;;13.10;3.17;;;;;;;;;;5112206;28;20039;-77
2022/11/03 08:21:26;;;;;;;13.15;3.50;;;;;;;;;;5112251;28;20080;-77
2022/11/03 08:23:52;;;;;;;18.67;3.70;;;;;;;;;;5111785;28;20076;-77
2022/11/03 08:26:18;;;;;;;15.93;3.70;;;;;;;;;;5112568;28;20045;-77
2022/11/03 08:28:44;;;;;;;13.57;3.20;;;;;;;;;;5109113;28;20463;-76
2022/11/03 08:31:10;;;;;;;14.15;3.47;;;;;;;;;;5110831;28;20394;-73
2022/11/03 08:33:36;;;;;;;13.85;2.90;;;;;;;;;;5112625;28;20051;-75
2022/11/03 08:36:03;;;;;;;14.35;3.00;;;;;;;;;;5111677;28;20040;-76
2022/11/03 08:38:29;;;;;;;14.93;3.90;;;;;;;;;;5111414;28;20032;-75
2022/11/03 08:40:57;;;;;;;15.88;3.50;;;;;;;;;;5111442;28;20050;-75
2022/11/03 08:43:23;;;;;;;13.45;3.28;;;;;;;;;;5091759;28;20048;-74
2022/11/03 08:45:52;;;;;;;16.00;3.35;;;;;;;;;;5099484;28;20434;-74
2022/11/03 08:48:18;;;;;;;17.13;3.42;;;;;;;;;;5111785;28;20047;-76
2022/11/03 08:50:44;;;;;;;13.30;3.28;;;;;;;;;;5111441;28;20537;-73
2022/11/03 08:53:10;;;;;;;18.63;3.67;;;;;;;;;;5111575;28;20510;-74
2022/11/03 08:55:36;;;;;;;10.38;3.03;;;;;;;;;;5109786;28;20431;-75
2022/11/03 08:58:03;;;;;;;15.50;3.70;;;;;;;;;;5111706;28;20066;-75
2022/11/03 09:00:29;;;;;;;14.20;3.40;;;;;;;;;;5110597;28;20059;-75
2022/11/03 09:02:55;;;;;;;15.15;3.30;;;;;;;;;;5111298;28;20047;-75
2022/11/03 09:05:21;;;;;;;19.63;4.00;;;;;;;;;;5111529;28;20047;-76
2022/11/03 09:07:47;;;;;;;11.48;3.03;;;;;;;;;;5111475;28;20039;-75
2022/11/03 09:10:13;;;;;;;14.10;3.65;;;;;;;;;;5092561;28;20078;-77
2022/11/03 09:12:39;;;;;;;12.15;2.88;;;;;;;;;;5111362;28;20051;-76
2022/11/03 09:15:05;;;;;;;18.35;3.40;;;;;;;;;;5110550;28;20048;-74
2022/11/03 09:17:32;;;;;;;16.30;3.30;;;;;;;;;;5075027;28;20488;-74
2022/11/03 09:19:58;;;;;;;15.40;3.30;;;;;;;;;;5093229;28;20052;-75
2022/11/03 09:22:24;;;;;;;14.52;3.25;;;;;;;;;;5109809;28;20043;-76
2022/11/03 09:24:50;;;;;;;12.73;3.33;;;;;;;;;;5110998;28;20430;-75
2022/11/03 09:27:16;;;;;;;11.15;3.88;;;;;;;;;;5102018;28;20051;-75
2022/11/03 09:29:42;;;;;;;16.08;3.67;;;;;;;;;;5076157;28;20074;-74
2022/11/03 09:32:09;;;;;;;12.43;3.25;;;;;;;;;;5109062;28;20043;-75
2022/11/03 09:34:35;;;;;;;16.45;3.65;;;;;;;;;;5110121;28;20403;-73
2022/11/03 09:37:01;;;;;;;12.20;3.03;;;;;;;;;;5110375;28;20512;-74
2022/11/03 09:39:27;;;;;;;16.02;3.58;;;;;;;;;;5088589;28;20465;-74
2022/11/03 09:41:56;;;;;;;12.77;3.20;;;;;;;;;;5105185;28;20043;-73
2022/11/03 09:44:22;;;;;;;16.35;3.53;;;;;;;;;;5090431;28;20066;-73
2022/11/03 09:46:50;;;;;;;18.20;3.50;;;;;;;;;;5093184;28;20478;-79
2022/11/03 09:49:16;;;;;;;12.70;3.10;;;;;;;;;;5110761;28;20054;-73
2022/11/03 09:51:42;;;;;;;14.80;3.30;;;;;;;;;;5109710;28;20044;-74
2022/11/03 09:54:14;;;;;;;16.67;4.05;;;;;;;;;;5086438;28;20088;-74
2022/11/03 09:56:41;;;;;;;17.20;3.67;;;;;;;;;;5110613;28;20521;-74
2022/11/03 09:59:13;;;;;;;13.80;3.42;;;;;;;;;;5113649;28;20043;-74
2022/11/03 10:01:40;;;;;;;18.17;3.35;;;;;;;;;;5112529;28;20039;-74
2022/11/03 10:04:09;;;;;;;22.08;3.67;;;;;;;;;;5107726;28;20086;-74
2022/11/03 10:06:35;;;;;;;19.80;3.80;;;;;;;;;;5094710;28;20139;-74
2022/11/03 10:09:01;;;;;;;18.08;3.63;;;;;;;;;;5114004;28;20409;-74
2022/11/03 10:11:27;;;;;;;17.33;3.45;;;;;;;;;;5113492;28;20727;-73
2022/11/03 10:13:55;;;;;;;11.82;2.83;;;;;;;;;;5109806;28;20082;-73
2022/11/03 10:16:22;;;;;;;14.57;3.65;;;;;;;;;;5112697;28;20523;-73
2022/11/03 10:18:49;;;;;;;17.73;3.25;;;;;;;;;;5113479;28;20051;-73
2022/11/03 10:21:17;;;;;;;16.60;3.47;;;;;;;;;;5113849;28;20400;-73
2022/11/03 10:23:43;;;;;;;16.13;3.67;;;;;;;;;;5112590;28;20046;-73
2022/11/03 10:26:11;;;;;;;15.63;3.08;;;;;;;;;;5101147;28;20493;-76
2022/11/03 10:28:37;;;;;;;14.35;2.95;;;;;;;;;;5111270;28;20382;-73
2022/11/03 10:31:06;;;;;;;12.55;2.88;;;;;;;;;;5111829;28;20074;-73
2022/11/03 10:33:34;;;;;;;16.17;3.55;;;;;;;;;;5110500;28;20463;-73
2022/11/03 10:36:01;;;;;;;14.23;3.20;;;;;;;;;;5112997;28;20136;-75
2022/11/03 10:38:29;;;;;;;17.05;3.40;;;;;;;;;;5109903;28;20044;-76
2022/11/03 10:40:56;;;;;;;14.02;3.45;;;;;;;;;;5113265;28;20103;-76
2022/11/03 10:43:22;;;;;;;11.80;2.65;;;;;;;;;;5101866;28;20047;-75
2022/11/03 10:45:54;;;;;;;14.73;3.20;;;;;;;;;;5113909;28;20052;-77
2022/11/03 10:48:21;;;;;;;15.32;3.00;;;;;;;;;;5113249;28;20135;-76
2022/11/03 10:50:47;;;;;;;16.25;3.47;;;;;;;;;;5110845;28;20047;-75
2022/11/03 10:53:17;;;;;;;13.88;3.38;;;;;;;;;;5110313;28;20051;-76
2022/11/03 10:55:44;;;;;;;12.90;2.95;;;;;;;;;;5110595;28;20052;-74
2022/11/03 10:58:10;;;;;;;12.98;3.38;;;;;;;;;;5111900;28;20035;-75
2022/11/03 11:00:37;;;;;;;15.85;3.53;;;;;;;;;;5112123;28;20048;-75
2022/11/03 11:03:05;;;;;;;12.48;3.15;;;;;;;;;;5093352;28;20039;-77
2022/11/03 11:05:32;;;;;;;13.35;2.63;;;;;;;;;;5112791;28;20096;-76
2022/11/03 11:07:58;;;;;;;11.45;2.72;;;;;;;;;;5111771;28;20417;-74
2022/11/03 11:10:25;;;;;;;16.98;3.33;;;;;;;;;;5094463;28;20047;-74
2022/11/03 11:13:11;;;;;;;11.23;2.50;;;;;;;;;;5094362;28;20105;-76
2022/11/03 11:15:41;;;;;;;10.45;2.90;;;;;;;;;;5114151;28;20116;-74
2022/11/03 11:18:08;;;;;;;13.23;2.90;;;;;;;;;;5110920;28;20076;-75
2022/11/03 11:20:35;;;;;;;11.70;2.92;;;;;;;;;;5111730;28;20123;-75
2022/11/03 11:23:19;;;;;;;10.75;3.38;;;;;;;;;;5112169;28;20267;-76
2022/11/03 11:26:04;;;;;;;11.57;2.70;;;;;;;;;;5095289;28;20059;-74
2022/11/03 11:28:30;;;;;;;12.38;2.70;;;;;;;;;;5113281;28;20039;-76
2022/11/03 11:30:56;;;;;;;15.20;3.25;;;;;;;;;;5111818;28;20048;-75
2022/11/03 11:33:23;;;;;;;9.85;2.55;;;;;;;;;;5091937;28;20047;-76
2022/11/03 11:35:49;;;;;;;10.82;2.72;;;;;;;;;;5110040;28;20056;-75
2022/11/03 11:38:54;;;;;;;10.75;2.40;;;;;;;;;;5113648;28;20443;-75
2022/11/03 11:41:21;;;;;;;13.02;2.85;;;;;;;;;;5029992;28;20053;-75
2022/11/03 11:43:47;;;;;;;13.02;2.83;;;;;;;;;;5031018;28;20045;-75
2022/11/03 11:46:22;;;;;;;11.30;2.50;;;;;;;;;;5030045;28;20120;-75
2022/11/03 11:48:50;;;;;;;11.57;2.60;;;;;;;;;;5029796;28;20049;-76
2022/11/03 11:51:16;;;;;;;12.80;2.90;;;;;;;;;;4997276;28;20095;-76
2022/11/03 11:53:43;;;;;;;12.85;2.50;;;;;;;;;;5028922;28;21900;-76
2022/11/03 11:56:11;;;;;;;12.45;2.60;;;;;;;;;;5028525;28;20089;-75
2022/11/03 11:58:37;;;;;;;12.20;2.83;;;;;;;;;;5027556;28;20131;-76
2022/11/03 12:01:05;;;;;;;9.65;2.53;;;;;;;;;;5029183;28;20085;-74
2022/11/03 12:03:41;;;;;;;10.10;2.53;;;;;;;;;;5028880;28;20052;-75
2022/11/03 12:06:08;;;;;;;11.02;2.72;;;;;;;;;;5029833;28;20045;-75
2022/11/03 12:08:34;;;;;;;14.82;2.92;;;;;;;;;;5030282;28;20081;-74
2022/11/03 12:11:03;;;;;;;11.20;2.63;;;;;;;;;;5034558;28;20084;-75
2022/11/03 12:13:46;;;;;;;13.68;2.70;;;;;;;;;;5112306;28;20059;-73
2022/11/03 12:16:32;;;;;;;8.63;2.40;;;;;;;;;;5093798;28;20073;-74
2022/11/03 12:19:17;;;;;;;11.02;2.22;;;;;;;;;;5112422;28;21049;-75
2022/11/03 12:21:45;;;;;;;10.27;2.63;;;;;;;;;;5111369;28;20035;-74
2022/11/03 12:24:29;;;;;;;7.95;2.05;;;;;;;;;;5110889;28;20132;-72
2022/11/03 12:26:55;;;;;;;12.90;2.40;;;;;;;;;;5104699;28;20051;-73
2022/11/03 12:29:21;;;;;;;9.23;2.25;;;;;;;;;;5111344;28;20051;-73
2022/11/03 12:31:47;;;;;;;10.30;2.30;;;;;;;;;;5109028;28;20092;-74
2022/11/03 12:34:14;;;;;;;10.27;2.58;;;;;;;;;;5111137;28;20509;-73
2022/11/03 12:36:40;;;;;;;12.05;2.45;;;;;;;;;;5111275;28;20035;-73
2022/11/03 12:39:06;;;;;;;12.82;2.55;;;;;;;;;;5076116;28;20046;-73
2022/11/03 12:41:32;;;;;;;11.40;2.70;;;;;;;;;;5111960;28;20097;-73
2022/11/03 12:43:58;;;;;;;8.82;2.20;;;;;;;;;;5110855;28;20122;-73
2022/11/03 12:46:24;;;;;;;9.30;2.85;;;;;;;;;;5112115;28;20040;-72
2022/11/03 12:48:50;;;;;;;13.45;2.90;;;;;;;;;;5111865;28;20048;-72
2022/11/03 12:51:17;;;;;;;10.38;2.67;;;;;;;;;;5112608;28;20048;-73
2022/11/03 12:53:43;;;;;;;13.93;2.97;;;;;;;;;;5110198;28;20051;-73
2022/11/03 12:56:10;;;;;;;12.07;2.60;;;;;;;;;;5112104;28;20455;-73
2022/11/03 12:58:36;;;;;;;10.52;2.88;;;;;;;;;;5110817;28;20043;-71
2022/11/03 13:01:02;;;;;;;11.45;2.60;;;;;;;;;;5112529;28;20133;-71
2022/11/03 13:03:28;;;;;;;9.70;2.70;;;;;;;;;;5111985;28;20086;-73
2022/11/03 13:05:54;;;;;;;10.60;2.50;;;;;;;;;;5089580;28;20028;-74
2022/11/03 13:08:21;;;;;;;9.45;2.30;;;;;;;;;;5111557;28;20541;-72
2022/11/03 13:10:47;;;;;;;12.20;2.45;;;;;;;;;;5110694;28;20093;-71
2022/11/03 13:13:13;;;;;;;11.50;2.60;;;;;;;;;;5110534;28;20054;-73
2022/11/03 13:15:39;;;;;;;10.93;2.90;;;;;;;;;;5109082;28;20067;-73
2022/11/03 13:18:05;;;;;;;12.55;2.72;;;;;;;;;;5096896;28;20048;-75
2022/11/03 13:20:34;;;;;;;8.63;2.42;;;;;;;;;;5093754;28;20051;-73
2022/11/03 13:23:01;;;;;;;12.35;2.63;;;;;;;;;;5098518;28;20126;-72
2022/11/03 13:25:27;;;;;;;13.38;2.78;;;;;;;;;;5083031;28;20481;-72
2022/11/03 13:27:53;;;;;;;13.45;2.72;;;;;;;;;;5106731;28;20082;-74
2022/11/03 13:30:20;;;;;;;11.70;2.47;;;;;;;;;;5089276;28;20047;-73
2022/11/03 13:32:46;;;;;;;11.02;3.03;;;;;;;;;;5109773;28;20038;-73
2022/11/03 13:35:13;;;;;;;12.30;2.70;;;;;;;;;;5079218;28;20460;-72
2022/11/03 13:37:39;;;;;;;9.95;2.30;;;;;;;;;;5110471;28;20042;-72
2022/11/03 13:40:05;;;;;;;10.30;2.55;;;;;;;;;;5109631;28;20035;-73
2022/11/03 13:42:31;;;;;;;11.38;2.40;;;;;;;;;;5115198;28;20044;-72
2022/11/03 13:44:57;;;;;;;11.52;2.40;;;;;;;;;;5099904;28;20046;-72
2022/11/03 13:47:23;;;;;;;13.45;2.72;;;;;;;;;;5106427;28;20078;-73
2022/11/03 13:49:52;;;;;;;8.70;1.80;;;;;;;;;;5111503;28;20121;-72
2022/11/03 13:52:18;;;;;;;7.13;1.95;;;;;;;;;;5111601;28;20054;-71
2022/11/03 13:54:44;;;;;;;9.15;2.15;;;;;;;;;;5114197;28;20131;-74
2022/11/03 13:57:10;;;;;;;68.32;6.80;;;;;;;;;;5114467;28;20040;-72
2022/11/03 13:59:36;;;;;;;131.82;10.40;;;;;;;;;;5115254;28;20164;-73
2022/11/03 14:02:03;;;;;;;250.73;12.48;;;;;;;;;;5115347;28;20062;-73
2022/11/03 14:04:29;;;;;;;32.13;3.15;;;;;;;;;;5115092;28;20056;-73
2022/11/03 14:06:55;;;;;;;23.52;2.60;;;;;;;;;;5100700;28;20557;-73
2022/11/03 14:09:21;;;;;;;12.13;2.20;;;;;;;;;;5112741;28;20127;-73
2022/11/03 14:14:32;;;;;;;12.00;1.95;;;;;;;;;;5110419;28;20421;-73
2022/11/03 14:16:58;;;;;;;9.50;1.95;;;;;;;;;;5111385;28;20096;-73
2022/11/03 14:19:25;;;;;;;11.57;2.40;;;;;;;;;;5114805;28;20488;-74
2022/11/03 14:21:51;;;;;;;8.55;2.03;;;;;;;;;;5114968;28;20071;-74
2022/11/03 14:24:17;;;;;;;9.52;2.20;;;;;;;;;;5113923;28;20054;-73
2022/11/03 14:26:43;;;;;;;9.40;2.03;;;;;;;;;;5113192;28;20048;-73
2022/11/03 14:29:09;;;;;;;8.70;2.40;;;;;;;;;;5104696;28;20509;-74
2022/11/03 14:31:35;;;;;;;8.38;2.00;;;;;;;;;;5103749;28;20055;-73
2022/11/03 14:34:02;;;;;;;10.75;2.40;;;;;;;;;;5110801;28;20499;-73
2022/11/03 14:36:28;;;;;;;9.88;2.25;;;;;;;;;;5108882;28;20401;-73
2022/11/03 14:38:54;;;;;;;10.68;2.08;;;;;;;;;;5087570;28;20044;-73
2022/11/03 14:44:05;;;;;;;11.25;1.95;;;;;;;;;;5109255;28;20052;-72
2022/11/03 14:46:31;;;;;;;11.00;2.50;;;;;;;;;;5111178;28;20142;-73
2022/11/03 14:48:57;;;;;;;9.25;2.17;;;;;;;;;;5114223;28;20084;-73
2022/11/03 14:51:23;;;;;;;10.30;1.90;;;;;;;;;;5104223;28;20489;-72
2022/11/03 14:53:49;;;;;;;10.32;2.20;;;;;;;;;;5110224;28;20047;-74
2022/11/03 14:56:15;;;;;;;8.13;1.60;;;;;;;;;;5113382;28;20161;-73
2022/11/03 14:58:41;;;;;;;7.78;2.10;;;;;;;;;;5113515;28;20074;-73
2022/11/03 15:01:08;;;;;;;12.32;2.50;;;;;;;;;;5113814;28;20651;-72